createdAt,value
2019-06-20T00:00:24.907Z,995.15
2019-06-20T00:01:24.866Z,995.14
2019-06-20T00:02:24.878Z,995.18
2019-06-20T00:03:24.860Z,995.17
2019-06-20T00:04:24.832Z,995.23
2019-06-20T00:05:24.793Z,995.31
2019-06-20T00:06:24.770Z,995.31
2019-06-20T00:07:24.754Z,995.29
2019-06-20T00:08:24.762Z,995.33
2019-06-20T00:09:24.736Z,995.37
2019-06-20T00:10:24.769Z,995.39
2019-06-20T00:11:24.700Z,995.36
2019-06-20T00:12:24.690Z,995.40
2019-06-20T00:13:24.678Z,995.37
2019-06-20T00:14:24.662Z,995.31
2019-06-20T00:15:24.632Z,995.35
2019-06-20T00:16:24.623Z,995.39
2019-06-20T00:17:24.610Z,995.36
2019-06-20T00:18:24.584Z,995.37
2019-06-20T00:19:24.555Z,995.37
2019-06-20T00:20:24.537Z,995.38
2019-06-20T00:21:24.578Z,995.37
2019-06-20T00:22:24.524Z,995.37
2019-06-20T00:23:24.508Z,995.40
2019-06-20T00:24:24.453Z,995.40
2019-06-20T00:25:24.446Z,995.38
2019-06-20T00:26:24.440Z,995.38
2019-06-20T00:27:24.456Z,995.39
2019-06-20T00:28:24.412Z,995.39
2019-06-20T00:29:24.373Z,995.37
2019-06-20T00:30:24.355Z,995.33
2019-06-20T00:31:32.998Z,995.34
2019-06-20T00:33:28.781Z,995.29
2019-06-20T00:34:28.743Z,995.30
2019-06-20T00:35:28.776Z,995.30
2019-06-20T00:36:28.716Z,995.27
2019-06-20T00:37:28.704Z,995.29
2019-06-20T00:38:28.671Z,995.35
2019-06-20T00:39:28.679Z,995.33
2019-06-20T00:40:28.650Z,995.40
2019-06-20T00:41:28.651Z,995.43
2019-06-20T00:42:28.606Z,995.43
2019-06-20T00:43:28.580Z,995.42
2019-06-20T00:44:28.594Z,995.42
2019-06-20T00:45:28.543Z,995.46
2019-06-20T00:46:28.554Z,995.48
2019-06-20T00:47:28.524Z,995.45
2019-06-20T00:48:28.517Z,995.45
2019-06-20T00:49:28.472Z,995.46
2019-06-20T00:50:28.455Z,995.43
2019-06-20T00:51:28.456Z,995.46
2019-06-20T00:52:28.444Z,995.47
2019-06-20T00:53:28.464Z,995.44
2019-06-20T00:54:28.491Z,995.47
2019-06-20T00:55:28.431Z,995.45
2019-06-20T00:56:28.385Z,995.45
2019-06-20T00:57:28.328Z,995.46
2019-06-20T00:58:28.351Z,995.48
2019-06-20T00:59:28.347Z,995.44
2019-06-20T01:00:28.288Z,995.46
2019-06-20T01:01:28.294Z,995.49
2019-06-20T01:02:28.261Z,995.48
2019-06-20T01:03:28.229Z,995.49
2019-06-20T01:04:28.231Z,995.49
2019-06-20T01:05:28.249Z,995.54
2019-06-20T01:06:28.196Z,995.51
2019-06-20T01:07:28.178Z,995.50
2019-06-20T01:08:28.154Z,995.52
2019-06-20T01:09:28.118Z,995.56
2019-06-20T01:10:28.121Z,995.60
2019-06-20T01:11:28.083Z,995.58
2019-06-20T01:12:28.071Z,995.59
2019-06-20T01:13:33.537Z,995.62
2019-06-20T01:14:28.057Z,995.64
2019-06-20T01:15:28.034Z,995.66
2019-06-20T01:16:28.013Z,995.64
2019-06-20T01:17:28.008Z,995.61
2019-06-20T01:18:28.008Z,995.65
2019-06-20T01:19:27.980Z,995.63
2019-06-20T01:20:27.965Z,995.63
2019-06-20T01:21:27.927Z,995.63
2019-06-20T01:22:27.887Z,995.60
2019-06-20T01:23:27.887Z,995.63
2019-06-20T01:24:27.872Z,995.64
2019-06-20T01:25:27.842Z,995.64
2019-06-20T01:26:27.833Z,995.67
2019-06-20T01:27:27.834Z,995.67
2019-06-20T01:28:27.806Z,995.69
2019-06-20T01:29:27.767Z,995.66
2019-06-20T01:30:27.785Z,995.71
2019-06-20T01:31:27.750Z,995.71
2019-06-20T01:32:27.715Z,995.74
2019-06-20T01:33:27.700Z,995.74
2019-06-20T01:34:27.694Z,995.77
2019-06-20T01:35:27.687Z,995.78
2019-06-20T01:36:27.647Z,995.81
2019-06-20T01:37:27.645Z,995.84
2019-06-20T01:38:27.633Z,995.84
2019-06-20T01:39:27.616Z,995.85
2019-06-20T01:40:27.582Z,995.85
2019-06-20T01:41:27.583Z,995.84
2019-06-20T01:42:27.557Z,995.88
2019-06-20T01:43:27.544Z,995.88
2019-06-20T01:44:27.526Z,995.85
2019-06-20T01:45:27.501Z,995.90
2019-06-20T01:46:27.513Z,995.88
2019-06-20T01:47:27.468Z,995.95
2019-06-20T01:48:27.465Z,995.95
2019-06-20T01:49:27.437Z,995.92
2019-06-20T01:50:27.428Z,995.93
2019-06-20T01:51:27.433Z,995.90
2019-06-20T01:52:27.387Z,995.94
2019-06-20T01:53:27.361Z,995.91
2019-06-20T01:54:27.358Z,995.92
2019-06-20T01:55:27.347Z,995.91
2019-06-20T01:56:27.304Z,995.96
2019-06-20T01:57:27.273Z,995.98
2019-06-20T01:58:27.283Z,996.01
2019-06-20T01:59:27.243Z,995.97
2019-06-20T02:00:27.232Z,996.02
2019-06-20T02:01:27.205Z,996.03
2019-06-20T02:02:27.193Z,996.00
2019-06-20T02:03:27.186Z,996.02
2019-06-20T02:04:27.168Z,996.03
2019-06-20T02:05:27.180Z,996.02
2019-06-20T02:06:27.151Z,996.00
2019-06-20T02:07:28.268Z,996.03
2019-06-20T02:08:27.092Z,996.01
2019-06-20T02:09:27.077Z,996.01
2019-06-20T02:10:27.058Z,996.03
2019-06-20T02:11:27.041Z,996.04
2019-06-20T02:12:27.037Z,996.04
2019-06-20T02:13:27.032Z,996.08
2019-06-20T02:14:26.993Z,996.06
2019-06-20T02:15:27.004Z,996.06
2019-06-20T02:16:26.957Z,996.09
2019-06-20T02:17:26.941Z,996.10
2019-06-20T02:18:26.915Z,996.09
2019-06-20T02:19:26.903Z,996.08
2019-06-20T02:20:26.882Z,996.11
2019-06-20T02:21:26.876Z,996.09
2019-06-20T02:22:26.852Z,996.13
2019-06-20T02:23:26.830Z,996.14
2019-06-20T02:24:26.815Z,996.14
2019-06-20T02:25:26.798Z,996.15
2019-06-20T02:26:26.801Z,996.14
2019-06-20T02:27:26.773Z,996.14
2019-06-20T02:28:26.745Z,996.12
2019-06-20T02:29:26.727Z,996.14
2019-06-20T02:30:26.735Z,996.10
2019-06-20T02:31:26.692Z,996.13
2019-06-20T02:32:26.671Z,996.10
2019-06-20T02:33:26.665Z,996.08
2019-06-20T02:34:26.639Z,996.11
2019-06-20T02:35:26.623Z,996.13
2019-06-20T02:36:26.604Z,996.13
2019-06-20T02:37:26.591Z,996.12
2019-06-20T02:38:26.573Z,996.16
2019-06-20T02:39:26.552Z,996.10
2019-06-20T02:40:26.548Z,996.14
2019-06-20T02:41:26.515Z,996.15
2019-06-20T02:42:26.504Z,996.20
2019-06-20T02:43:26.480Z,996.19
2019-06-20T02:44:30.425Z,996.15
2019-06-20T02:45:26.449Z,996.18
2019-06-20T02:46:26.434Z,996.18
2019-06-20T02:47:26.406Z,996.15
2019-06-20T02:48:26.394Z,996.13
2019-06-20T02:49:26.378Z,996.20
2019-06-20T02:50:26.364Z,996.19
2019-06-20T02:51:26.343Z,996.20
2019-06-20T02:52:26.326Z,996.20
2019-06-20T02:53:26.310Z,996.18
2019-06-20T02:54:26.294Z,996.18
2019-06-20T02:55:26.278Z,996.18
2019-06-20T02:56:26.257Z,996.20
2019-06-20T02:57:26.241Z,996.17
2019-06-20T02:58:26.222Z,996.19
2019-06-20T02:59:26.208Z,996.22
2019-06-20T03:00:26.191Z,996.20
2019-06-20T03:01:26.167Z,996.17
2019-06-20T03:02:26.167Z,996.20
2019-06-20T03:03:26.147Z,996.23
2019-06-20T03:04:26.133Z,996.24
2019-06-20T03:05:26.131Z,996.20
2019-06-20T03:06:26.084Z,996.23
2019-06-20T03:07:26.086Z,996.24
2019-06-20T03:08:26.043Z,996.28
2019-06-20T03:09:26.069Z,996.28
2019-06-20T03:10:26.053Z,996.30
2019-06-20T03:11:26.018Z,996.26
2019-06-20T03:12:25.980Z,996.31
2019-06-20T03:13:25.961Z,996.33
2019-06-20T03:14:25.958Z,996.35
2019-06-20T03:15:25.934Z,996.35
2019-06-20T03:16:25.934Z,996.36
2019-06-20T03:17:25.916Z,996.35
2019-06-20T03:18:25.880Z,996.33
2019-06-20T03:19:25.897Z,996.37
2019-06-20T03:20:25.847Z,996.40
2019-06-20T03:21:25.823Z,996.42
2019-06-20T03:22:25.800Z,996.42
2019-06-20T03:23:25.795Z,996.40
2019-06-20T03:24:25.769Z,996.41
2019-06-20T03:25:25.765Z,996.43
2019-06-20T03:26:25.763Z,996.44
2019-06-20T03:27:25.734Z,996.40
2019-06-20T03:28:25.729Z,996.39
2019-06-20T03:29:25.720Z,996.42
2019-06-20T03:30:25.686Z,996.44
2019-06-20T03:31:25.681Z,996.43
2019-06-20T03:32:25.637Z,996.43
2019-06-20T03:33:25.640Z,996.41
2019-06-20T03:34:25.601Z,996.38
2019-06-20T03:35:25.581Z,996.37
2019-06-20T03:36:25.562Z,996.38
2019-06-20T03:37:25.540Z,996.43
2019-06-20T03:38:25.548Z,996.39
2019-06-20T03:39:25.548Z,996.40
2019-06-20T03:40:25.495Z,996.44
2019-06-20T03:41:25.494Z,996.47
2019-06-20T03:42:25.475Z,996.50
2019-06-20T03:43:25.452Z,996.53
2019-06-20T03:44:25.442Z,996.54
2019-06-20T03:45:25.407Z,996.56
2019-06-20T03:46:25.393Z,996.52
2019-06-20T03:47:25.362Z,996.54
2019-06-20T03:48:25.351Z,996.53
2019-06-20T03:49:25.335Z,996.52
2019-06-20T03:50:25.313Z,996.49
2019-06-20T03:51:25.313Z,996.50
2019-06-20T03:52:25.297Z,996.51
2019-06-20T03:53:25.261Z,996.52
2019-06-20T03:54:25.248Z,996.54
2019-06-20T03:55:25.236Z,996.50
2019-06-20T03:56:25.236Z,996.52
2019-06-20T03:57:25.189Z,996.57
2019-06-20T03:58:25.195Z,996.60
2019-06-20T03:59:25.176Z,996.59
2019-06-20T04:00:25.235Z,996.60
2019-06-20T04:01:25.121Z,996.64
2019-06-20T04:02:25.124Z,996.63
2019-06-20T04:03:25.085Z,996.66
2019-06-20T04:04:25.099Z,996.66
2019-06-20T04:05:25.079Z,996.68
2019-06-20T04:06:25.040Z,996.64
2019-06-20T04:07:25.017Z,996.67
2019-06-20T04:08:25.009Z,996.64
2019-06-20T04:09:25.017Z,996.65
2019-06-20T04:10:24.975Z,996.69
2019-06-20T04:11:24.957Z,996.71
2019-06-20T04:12:24.947Z,996.74
2019-06-20T04:13:24.959Z,996.74
2019-06-20T04:14:24.932Z,996.74
2019-06-20T04:15:24.882Z,996.72
2019-06-20T04:16:24.874Z,996.76
2019-06-20T04:17:24.843Z,996.74
2019-06-20T04:18:24.844Z,996.72
2019-06-20T04:19:24.820Z,996.72
2019-06-20T04:20:24.795Z,996.78
2019-06-20T04:21:24.807Z,996.72
2019-06-20T04:22:24.773Z,996.74
2019-06-20T04:23:24.811Z,996.75
2019-06-20T04:24:27.784Z,996.76
2019-06-20T04:25:24.734Z,996.80
2019-06-20T04:26:24.708Z,996.77
2019-06-20T04:27:24.663Z,996.79
2019-06-20T04:28:24.672Z,996.74
2019-06-20T04:29:24.684Z,996.75
2019-06-20T04:30:24.669Z,996.78
2019-06-20T04:31:24.602Z,996.82
2019-06-20T04:32:24.586Z,996.79
2019-06-20T04:33:24.567Z,996.81
2019-06-20T04:34:24.544Z,996.84
2019-06-20T04:35:24.529Z,996.86
2019-06-20T04:36:24.526Z,996.92
2019-06-20T04:37:24.539Z,996.92
2019-06-20T04:38:24.482Z,996.94
2019-06-20T04:39:24.481Z,996.99
2019-06-20T04:40:24.460Z,996.96
2019-06-20T04:41:24.424Z,996.96
2019-06-20T04:42:24.415Z,997.00
2019-06-20T04:43:24.388Z,997.01
2019-06-20T04:44:24.378Z,997.00
2019-06-20T04:45:34.624Z,997.02
2019-06-20T04:46:24.362Z,997.00
2019-06-20T04:47:24.364Z,997.01
2019-06-20T04:48:24.328Z,997.04
2019-06-20T04:49:24.311Z,997.07
2019-06-20T04:50:24.277Z,997.10
2019-06-20T04:51:24.285Z,997.10
2019-06-20T04:52:24.239Z,997.11
2019-06-20T04:53:24.219Z,997.14
2019-06-20T04:54:24.194Z,997.18
2019-06-20T04:55:24.213Z,997.16
2019-06-20T04:56:24.175Z,997.19
2019-06-20T04:57:24.166Z,997.15
2019-06-20T04:58:24.152Z,997.18
2019-06-20T04:59:24.111Z,997.23
2019-06-20T05:00:24.114Z,997.22
2019-06-20T05:01:24.078Z,997.24
2019-06-20T05:02:24.093Z,997.27
2019-06-20T05:03:24.045Z,997.25
2019-06-20T05:04:24.042Z,997.25
2019-06-20T05:05:24.053Z,997.24
2019-06-20T05:06:23.992Z,997.25
2019-06-20T05:07:23.972Z,997.25
2019-06-20T05:08:23.980Z,997.26
2019-06-20T05:09:23.940Z,997.25
2019-06-20T05:10:23.926Z,997.30
2019-06-20T05:11:23.908Z,997.26
2019-06-20T05:12:23.889Z,997.27
2019-06-20T05:13:23.868Z,997.30
2019-06-20T05:14:23.862Z,997.31
2019-06-20T05:15:23.835Z,997.29
2019-06-20T05:16:23.840Z,997.30
2019-06-20T05:17:23.851Z,997.34
2019-06-20T05:18:23.824Z,997.38
2019-06-20T05:19:23.771Z,997.36
2019-06-20T05:20:23.750Z,997.37
2019-06-20T05:21:23.757Z,997.42
2019-06-20T05:22:23.713Z,997.41
2019-06-20T05:23:23.706Z,997.41
2019-06-20T05:24:25.646Z,997.36
2019-06-20T05:25:23.687Z,997.39
2019-06-20T05:26:23.680Z,997.40
2019-06-20T05:27:23.628Z,997.42
2019-06-20T05:28:23.611Z,997.38
2019-06-20T05:29:23.596Z,997.40
2019-06-20T05:30:23.593Z,997.39
2019-06-20T05:31:23.561Z,997.40
2019-06-20T05:32:23.545Z,997.36
2019-06-20T05:33:23.549Z,997.40
2019-06-20T05:34:23.514Z,997.38
2019-06-20T05:35:23.526Z,997.41
2019-06-20T05:36:23.470Z,997.43
2019-06-20T05:37:23.464Z,997.40
2019-06-20T05:38:23.440Z,997.43
2019-06-20T05:39:23.430Z,997.46
2019-06-20T05:40:23.410Z,997.46
2019-06-20T05:41:23.412Z,997.50
2019-06-20T05:42:23.388Z,997.49
2019-06-20T05:43:23.352Z,997.55
2019-06-20T05:44:23.361Z,997.50
2019-06-20T05:45:23.342Z,997.52
2019-06-20T05:46:23.299Z,997.55
2019-06-20T05:47:23.317Z,997.50
2019-06-20T05:48:23.288Z,997.51
2019-06-20T05:49:23.267Z,997.53
2019-06-20T05:50:23.265Z,997.54
2019-06-20T05:51:24.056Z,997.52
2019-06-20T05:52:23.203Z,997.53
2019-06-20T05:53:23.191Z,997.52
2019-06-20T05:54:23.174Z,997.54
2019-06-20T05:55:23.149Z,997.53
2019-06-20T05:56:23.143Z,997.49
2019-06-20T05:57:23.148Z,997.49
2019-06-20T05:58:23.112Z,997.48
2019-06-20T05:59:23.094Z,997.55
2019-06-20T06:00:23.108Z,997.50
2019-06-20T06:01:23.062Z,997.54
2019-06-20T06:02:23.079Z,997.51
2019-06-20T06:03:23.006Z,997.55
2019-06-20T06:04:23.030Z,997.54
2019-06-20T06:05:22.976Z,997.56
2019-06-20T06:06:23.008Z,997.59
2019-06-20T06:07:23.080Z,997.59
2019-06-20T06:08:22.945Z,997.58
2019-06-20T06:09:22.956Z,997.57
2019-06-20T06:10:23.238Z,997.56
2019-06-20T06:11:22.904Z,997.60
2019-06-20T06:12:22.895Z,997.65
2019-06-20T06:13:22.860Z,997.57
2019-06-20T06:14:22.822Z,997.57
2019-06-20T06:15:22.837Z,997.57
2019-06-20T06:16:27.519Z,997.55
2019-06-20T06:17:22.784Z,997.55
2019-06-20T06:18:22.775Z,997.54
2019-06-20T06:19:22.753Z,997.52
2019-06-20T06:20:22.755Z,997.52
2019-06-20T06:21:22.729Z,997.59
2019-06-20T06:22:22.723Z,997.55
2019-06-20T06:23:22.704Z,997.55
2019-06-20T06:24:22.677Z,997.59
2019-06-20T06:25:22.668Z,997.51
2019-06-20T06:26:22.717Z,997.53
2019-06-20T06:27:22.630Z,997.55
2019-06-20T06:28:22.608Z,997.53
2019-06-20T06:29:22.591Z,997.53
2019-06-20T06:30:22.651Z,997.54
2019-06-20T06:31:22.578Z,997.52
2019-06-20T06:32:39.926Z,997.55
2019-06-20T06:34:27.335Z,997.59
2019-06-20T06:35:26.947Z,997.55
2019-06-20T06:36:27.038Z,997.56
2019-06-20T06:37:26.923Z,997.60
2019-06-20T06:38:26.892Z,997.64
2019-06-20T06:39:26.890Z,997.66
2019-06-20T06:40:26.926Z,997.63
2019-06-20T06:41:26.827Z,997.62
2019-06-20T06:42:26.923Z,997.65
2019-06-20T06:43:26.836Z,997.68
2019-06-20T06:44:26.802Z,997.67
2019-06-20T06:45:26.823Z,997.65
2019-06-20T06:46:42.531Z,997.64
2019-06-20T06:47:26.846Z,997.64
2019-06-20T06:48:26.709Z,997.63
2019-06-20T06:49:26.699Z,997.65
2019-06-20T06:50:26.676Z,997.63
2019-06-20T06:51:26.661Z,997.69
2019-06-20T06:52:26.644Z,997.74
2019-06-20T06:53:26.623Z,997.71
2019-06-20T06:54:26.608Z,997.69
2019-06-20T06:55:27.672Z,997.72
2019-06-20T06:56:26.584Z,997.73
2019-06-20T06:57:26.580Z,997.68
2019-06-20T06:58:26.540Z,997.72
2019-06-20T06:59:26.536Z,997.75
2019-06-20T07:00:26.517Z,997.77
2019-06-20T07:01:26.501Z,997.78
2019-06-20T07:02:26.485Z,997.82
2019-06-20T07:03:26.461Z,997.74
2019-06-20T07:04:26.448Z,997.67
2019-06-20T07:05:26.438Z,997.76
2019-06-20T07:06:26.412Z,997.75
2019-06-20T07:07:26.436Z,997.72
2019-06-20T07:08:26.464Z,997.69
2019-06-20T07:09:26.377Z,997.77
2019-06-20T07:10:26.378Z,997.72
2019-06-20T07:11:26.363Z,997.76
2019-06-20T07:12:26.352Z,997.77
2019-06-20T07:13:26.306Z,997.78
2019-06-20T07:14:26.305Z,997.79
2019-06-20T07:15:26.287Z,997.82
2019-06-20T07:16:26.274Z,997.83
2019-06-20T07:17:26.250Z,997.86
2019-06-20T07:18:26.258Z,997.82
2019-06-20T07:19:26.221Z,997.79
2019-06-20T07:20:26.205Z,997.79
2019-06-20T07:21:26.205Z,997.83
2019-06-20T07:22:26.195Z,997.81
2019-06-20T07:23:26.170Z,997.81
2019-06-20T07:24:26.171Z,997.82
2019-06-20T07:25:26.129Z,997.79
2019-06-20T07:26:26.131Z,997.83
2019-06-20T07:27:26.248Z,997.82
2019-06-20T07:28:26.093Z,997.81
2019-06-20T07:29:26.099Z,997.85
2019-06-20T07:30:26.067Z,997.88
2019-06-20T07:31:26.044Z,997.91
2019-06-20T07:32:26.028Z,997.91
2019-06-20T07:33:26.019Z,997.91
2019-06-20T07:34:25.995Z,997.94
2019-06-20T07:35:25.990Z,997.94
2019-06-20T07:36:25.963Z,997.95
2019-06-20T07:37:25.984Z,997.95
2019-06-20T07:38:25.954Z,997.93
2019-06-20T07:39:25.920Z,997.97
2019-06-20T07:40:25.908Z,997.93
2019-06-20T07:41:25.902Z,997.94
2019-06-20T07:42:25.872Z,997.96
2019-06-20T07:43:25.863Z,997.94
2019-06-20T07:44:25.842Z,997.95
2019-06-20T07:45:27.417Z,997.96
2019-06-20T07:46:25.860Z,997.93
2019-06-20T07:47:25.817Z,998.01
2019-06-20T07:48:25.798Z,997.98
2019-06-20T07:49:25.789Z,998.02
2019-06-20T07:50:25.781Z,998.01
2019-06-20T07:51:25.764Z,998.02
2019-06-20T07:52:25.733Z,998.03
2019-06-20T07:53:25.715Z,998.06
2019-06-20T07:54:25.702Z,998.11
2019-06-20T07:55:25.725Z,998.12
2019-06-20T07:56:25.674Z,998.08
2019-06-20T07:57:25.649Z,998.11
2019-06-20T07:58:25.635Z,998.13
2019-06-20T07:59:25.638Z,998.12
2019-06-20T08:00:25.612Z,998.09
2019-06-20T08:01:25.607Z,998.06
2019-06-20T08:02:25.596Z,998.15
2019-06-20T08:03:25.565Z,998.17
2019-06-20T08:04:25.559Z,998.14
2019-06-20T08:05:25.570Z,998.14
2019-06-20T08:06:25.547Z,998.12
2019-06-20T08:07:25.529Z,998.15
2019-06-20T08:08:25.515Z,998.13
2019-06-20T08:09:43.653Z,998.17
2019-06-20T08:10:25.605Z,998.20
2019-06-20T08:11:25.461Z,998.22
2019-06-20T08:12:25.485Z,998.13
2019-06-20T08:13:25.459Z,998.17
2019-06-20T08:14:25.417Z,998.16
2019-06-20T08:15:25.401Z,998.14
2019-06-20T08:16:25.430Z,998.19
2019-06-20T08:17:34.962Z,998.16
2019-06-20T08:18:25.358Z,998.18
2019-06-20T08:19:25.370Z,998.13
2019-06-20T08:20:25.435Z,998.16
2019-06-20T08:21:25.391Z,998.14
2019-06-20T08:22:25.316Z,998.18
2019-06-20T08:23:25.290Z,998.21
2019-06-20T08:24:25.298Z,998.16
2019-06-20T08:25:25.493Z,998.20
2019-06-20T08:26:25.255Z,998.20
2019-06-20T08:27:25.248Z,998.23
2019-06-20T08:28:25.226Z,998.22
2019-06-20T08:29:25.228Z,998.22
2019-06-20T08:30:25.197Z,998.26
2019-06-20T08:31:25.201Z,998.27
2019-06-20T08:32:25.178Z,998.31
2019-06-20T08:33:25.156Z,998.30
2019-06-20T08:34:25.213Z,998.26
2019-06-20T08:35:25.147Z,998.24
2019-06-20T08:36:25.125Z,998.31
2019-06-20T08:37:25.121Z,998.34
2019-06-20T08:38:25.119Z,998.34
2019-06-20T08:39:25.078Z,998.34
2019-06-20T08:40:25.063Z,998.38
2019-06-20T08:41:25.062Z,998.35
2019-06-20T08:42:25.067Z,998.34
2019-06-20T08:43:25.036Z,998.35
2019-06-20T08:44:25.027Z,998.36
2019-06-20T08:45:25.014Z,998.36
2019-06-20T08:46:24.997Z,998.41
2019-06-20T08:47:24.999Z,998.38
2019-06-20T08:48:25.083Z,998.41
2019-06-20T08:49:24.965Z,998.36
2019-06-20T08:50:24.942Z,998.39
2019-06-20T08:51:24.983Z,998.37
2019-06-20T08:52:24.941Z,998.41
2019-06-20T08:53:33.666Z,998.45
2019-06-20T08:55:30.714Z,998.46
2019-06-20T08:56:30.355Z,998.46
2019-06-20T08:57:30.319Z,998.44
2019-06-20T08:58:31.384Z,998.46
2019-06-20T08:59:30.328Z,998.46
2019-06-20T09:00:30.311Z,998.50
2019-06-20T09:01:30.265Z,998.48
2019-06-20T09:02:30.254Z,998.44
2019-06-20T09:03:30.418Z,998.51
2019-06-20T09:04:30.303Z,998.52
2019-06-20T09:05:31.053Z,998.51
2019-06-20T09:06:30.221Z,998.53
2019-06-20T09:07:30.201Z,998.55
2019-06-20T09:08:30.203Z,998.56
2019-06-20T09:09:30.182Z,998.51
2019-06-20T09:10:30.318Z,998.54
2019-06-20T09:11:30.128Z,998.51
2019-06-20T09:12:30.135Z,998.51
2019-06-20T09:13:30.107Z,998.49
2019-06-20T09:14:30.143Z,998.51
2019-06-20T09:15:30.263Z,998.56
2019-06-20T09:16:30.098Z,998.55
2019-06-20T09:17:30.150Z,998.53
2019-06-20T09:18:30.079Z,998.55
2019-06-20T09:19:38.704Z,998.61
2019-06-20T09:21:43.526Z,998.61
2019-06-20T09:22:34.466Z,998.60
2019-06-20T09:23:35.761Z,998.59
2019-06-20T09:24:34.440Z,998.60
2019-06-20T09:25:34.581Z,998.61
2019-06-20T09:26:34.944Z,998.58
2019-06-20T09:27:44.851Z,998.58
2019-06-20T09:31:18.985Z,998.63
2019-06-20T09:32:30.712Z,998.63
2019-06-20T09:33:18.944Z,998.60
2019-06-20T09:34:18.834Z,998.62
2019-06-20T09:35:27.510Z,998.60
2019-06-20T09:37:24.707Z,998.65
2019-06-20T09:38:24.353Z,998.58
2019-06-20T09:39:24.352Z,998.64
2019-06-20T09:40:24.259Z,998.71
2019-06-20T09:41:24.300Z,998.65
2019-06-20T09:42:24.300Z,998.68
2019-06-20T09:43:27.845Z,998.66
2019-06-20T09:44:24.211Z,998.68
2019-06-20T09:45:24.183Z,998.69
2019-06-20T09:46:24.199Z,998.75
2019-06-20T09:47:24.142Z,998.70
2019-06-20T09:48:24.149Z,998.73
2019-06-20T09:49:24.109Z,998.75
2019-06-20T09:50:24.107Z,998.74
2019-06-20T09:51:24.084Z,998.71
2019-06-20T09:52:24.080Z,998.77
2019-06-20T09:53:32.794Z,998.74
2019-06-20T09:55:28.643Z,998.73
2019-06-20T09:56:37.172Z,998.75
2019-06-20T09:58:53.188Z,998.74
2019-06-20T09:59:56.123Z,998.77
2019-06-20T10:00:44.248Z,998.76
2019-06-20T10:01:44.330Z,998.76
2019-06-20T10:02:44.166Z,998.79
2019-06-20T10:03:44.141Z,998.80
2019-06-20T10:04:44.139Z,998.81
2019-06-20T10:05:44.110Z,998.82
2019-06-20T10:06:44.093Z,998.83
2019-06-20T10:07:44.107Z,998.87
2019-06-20T10:08:44.087Z,998.86
2019-06-20T10:09:44.076Z,998.79
2019-06-20T10:10:45.447Z,998.79
2019-06-20T10:11:45.322Z,998.80
2019-06-20T10:12:45.198Z,998.79
2019-06-20T10:13:44.997Z,998.78
2019-06-20T10:14:45.439Z,998.75
2019-06-20T10:15:44.914Z,998.75
2019-06-20T10:16:47.500Z,998.77
2019-06-20T10:17:44.020Z,998.75
2019-06-20T10:18:43.946Z,998.74
2019-06-20T10:19:43.983Z,998.75
2019-06-20T10:20:44.368Z,998.73
2019-06-20T10:21:53.781Z,998.76
2019-06-20T10:22:45.486Z,998.73
2019-06-20T10:23:46.026Z,998.79
2019-06-20T10:24:45.777Z,998.82
2019-06-20T10:25:46.044Z,998.82
2019-06-20T10:26:44.910Z,998.81
2019-06-20T10:27:44.842Z,998.82
2019-06-20T10:28:53.099Z,998.87
2019-06-20T10:30:57.880Z,998.85
2019-06-20T10:31:49.027Z,998.86
2019-06-20T10:32:48.679Z,998.86
2019-06-20T10:33:48.458Z,998.87
2019-06-20T10:34:48.406Z,998.85
2019-06-20T10:35:48.457Z,998.81
2019-06-20T10:36:48.275Z,998.79
2019-06-20T10:37:48.527Z,998.80
2019-06-20T10:38:48.186Z,998.79
2019-06-20T10:39:48.204Z,998.77
2019-06-20T10:40:48.153Z,998.80
2019-06-20T10:41:48.540Z,998.75
2019-06-20T10:42:48.253Z,998.77
2019-06-20T10:43:48.094Z,998.72
2019-06-20T10:44:48.126Z,998.78
2019-06-20T10:45:49.407Z,998.76
2019-06-20T10:46:56.740Z,998.79
2019-06-20T10:49:01.650Z,998.81
2019-06-20T10:49:52.824Z,998.83
2019-06-20T10:51:02.202Z,998.80
2019-06-20T10:52:45.858Z,998.82
2019-06-20T10:53:47.113Z,998.83
2019-06-20T10:54:46.996Z,998.86
2019-06-20T10:55:46.961Z,998.89
2019-06-20T10:56:47.040Z,998.82
2019-06-20T10:57:46.715Z,998.89
2019-06-20T10:58:46.366Z,998.88
2019-06-20T10:59:46.506Z,998.92
2019-06-20T11:00:46.193Z,998.95
2019-06-20T11:01:46.642Z,998.94
2019-06-20T11:02:47.023Z,998.94
2019-06-20T11:03:46.069Z,998.91
2019-06-20T11:04:45.725Z,998.92
2019-06-20T11:05:45.679Z,998.91
2019-06-20T11:06:45.764Z,998.96
2019-06-20T11:07:45.756Z,998.93
2019-06-20T11:08:45.662Z,998.93
2019-06-20T11:09:45.652Z,998.95
2019-06-20T11:10:47.203Z,998.92
2019-06-20T11:11:47.003Z,998.93
2019-06-20T11:12:53.044Z,998.95
2019-06-20T11:13:46.569Z,998.96
2019-06-20T11:14:46.218Z,998.92
2019-06-20T11:15:46.204Z,998.91
2019-06-20T11:16:45.606Z,998.91
2019-06-20T11:17:46.307Z,998.93
2019-06-20T11:18:46.353Z,998.91
2019-06-20T11:19:45.817Z,998.92
2019-06-20T11:20:46.645Z,998.94
2019-06-20T11:21:45.753Z,998.93
2019-06-20T11:22:45.512Z,998.92
2019-06-20T11:23:45.478Z,998.93
2019-06-20T11:24:45.499Z,998.92
2019-06-20T11:25:46.634Z,998.90
2019-06-20T11:26:46.014Z,998.95
2019-06-20T11:27:47.128Z,998.95
2019-06-20T11:28:45.469Z,998.92
2019-06-20T11:29:46.529Z,998.93
2019-06-20T11:30:56.112Z,998.93
2019-06-20T11:31:47.566Z,998.94
2019-06-20T11:32:45.785Z,998.94
2019-06-20T11:33:45.402Z,998.95
2019-06-20T11:34:45.367Z,998.90
2019-06-20T11:35:45.373Z,998.92
2019-06-20T11:36:46.712Z,998.90
2019-06-20T11:37:45.385Z,998.91
2019-06-20T11:38:45.771Z,998.85
2019-06-20T11:39:45.392Z,998.88
2019-06-20T11:40:45.422Z,998.90
2019-06-20T11:41:45.282Z,998.83
2019-06-20T11:42:46.765Z,998.84
2019-06-20T11:43:46.794Z,998.87
2019-06-20T11:44:45.279Z,998.86
2019-06-20T11:45:45.254Z,998.90
2019-06-20T11:46:45.238Z,998.89
2019-06-20T11:47:45.260Z,998.82
2019-06-20T11:48:45.210Z,998.85
2019-06-20T11:49:45.194Z,998.80
2019-06-20T11:50:46.291Z,998.80
2019-06-20T11:51:45.227Z,998.86
2019-06-20T11:52:45.895Z,998.86
2019-06-20T11:53:45.154Z,998.84
2019-06-20T11:54:45.156Z,998.85
2019-06-20T11:55:45.145Z,998.82
2019-06-20T11:56:45.149Z,998.80
2019-06-20T11:57:45.137Z,998.83
2019-06-20T11:58:45.111Z,998.84
2019-06-20T11:59:53.876Z,998.86
2019-06-20T12:03:08.034Z,998.81
2019-06-20T12:04:09.503Z,998.83
2019-06-20T12:05:08.131Z,998.83
2019-06-20T12:06:07.892Z,998.81
2019-06-20T12:07:07.928Z,998.80
2019-06-20T12:08:07.881Z,998.81
2019-06-20T12:09:07.862Z,998.80
2019-06-20T12:10:07.830Z,998.77
2019-06-20T12:11:07.847Z,998.81
2019-06-20T12:12:07.812Z,998.78
2019-06-20T12:13:07.829Z,998.77
2019-06-20T12:14:07.784Z,998.77
2019-06-20T12:15:07.785Z,998.73
2019-06-20T12:16:07.795Z,998.74
2019-06-20T12:17:07.774Z,998.77
2019-06-20T12:18:07.807Z,998.77
2019-06-20T12:19:07.774Z,998.78
2019-06-20T12:20:07.804Z,998.84
2019-06-20T12:21:07.751Z,998.85
2019-06-20T12:22:07.776Z,998.84
2019-06-20T12:23:07.711Z,998.84
2019-06-20T12:24:08.658Z,998.85
2019-06-20T12:25:07.717Z,998.82
2019-06-20T12:26:07.717Z,998.85
2019-06-20T12:27:07.624Z,998.85
2019-06-20T12:28:07.675Z,998.84
2019-06-20T12:29:07.647Z,998.86
2019-06-20T12:30:07.618Z,998.87
2019-06-20T12:31:18.861Z,998.89
2019-06-20T12:32:09.974Z,998.83
2019-06-20T12:33:07.576Z,998.82
2019-06-20T12:34:07.545Z,998.82
2019-06-20T12:35:07.559Z,998.82
2019-06-20T12:36:07.524Z,998.81
2019-06-20T12:37:07.488Z,998.82
2019-06-20T12:38:07.502Z,998.83
2019-06-20T12:39:07.467Z,998.87
2019-06-20T12:45:09.165Z,998.88
2019-06-20T12:46:35.821Z,998.86
2019-06-20T12:47:08.155Z,998.82
2019-06-20T12:50:10.498Z,998.87
2019-06-20T12:51:07.315Z,998.90